sensor_id;sensor_type;location;lat;lon;timestamp;temperature;humidity
32506;DHT22;18955;51.224;8.482;2023-09-12T00:00:36;18.80;81.90
32506;DHT22;18955;51.224;8.482;2023-09-12T00:03:02;18.70;81.90
32506;DHT22;18955;51.224;8.482;2023-09-12T00:05:29;18.70;82.00
32506;DHT22;18955;51.224;8.482;2023-09-12T00:07:55;18.70;81.80
32506;DHT22;18955;51.224;8.482;2023-09-12T00:10:21;18.70;82.10
32506;DHT22;18955;51.224;8.482;2023-09-12T00:12:47;18.70;82.60
32506;DHT22;18955;51.224;8.482;2023-09-12T00:15:13;18.60;82.10
32506;DHT22;18955;51.224;8.482;2023-09-12T00:17:40;18.60;82.00
32506;DHT22;18955;51.224;8.482;2023-09-12T00:20:07;18.60;81.90
32506;DHT22;18955;51.224;8.482;2023-09-12T00:22:33;18.60;82.10
32506;DHT22;18955;51.224;8.482;2023-09-12T00:25:00;18.60;82.10
32506;DHT22;18955;51.224;8.482;2023-09-12T00:27:26;18.50;82.30
32506;DHT22;18955;51.224;8.482;2023-09-12T00:29:52;18.50;82.10
32506;DHT22;18955;51.224;8.482;2023-09-12T00:32:18;18.50;82.30
32506;DHT22;18955;51.224;8.482;2023-09-12T00:34:45;18.50;81.90
32506;DHT22;18955;51.224;8.482;2023-09-12T00:37:11;18.50;82.20
32506;DHT22;18955;51.224;8.482;2023-09-12T00:39:38;18.50;82.10
32506;DHT22;18955;51.224;8.482;2023-09-12T00:42:04;18.50;82.20
32506;DHT22;18955;51.224;8.482;2023-09-12T00:44:33;18.40;82.10
32506;DHT22;18955;51.224;8.482;2023-09-12T00:47:01;18.40;82.30
32506;DHT22;18955;51.224;8.482;2023-09-12T00:49:28;18.40;82.20
32506;DHT22;18955;51.224;8.482;2023-09-12T00:51:56;18.40;82.40
32506;DHT22;18955;51.224;8.482;2023-09-12T00:54:22;18.30;82.20
32506;DHT22;18955;51.224;8.482;2023-09-12T00:56:48;18.30;82.50
32506;DHT22;18955;51.224;8.482;2023-09-12T00:59:16;18.30;82.40
32506;DHT22;18955;51.224;8.482;2023-09-12T01:01:43;18.30;82.60
32506;DHT22;18955;51.224;8.482;2023-09-12T01:04:10;18.30;82.60
32506;DHT22;18955;51.224;8.482;2023-09-12T01:06:37;18.20;82.70
32506;DHT22;18955;51.224;8.482;2023-09-12T01:09:04;18.20;82.80
32506;DHT22;18955;51.224;8.482;2023-09-12T01:11:31;18.20;82.80
32506;DHT22;18955;51.224;8.482;2023-09-12T01:13:57;18.20;82.80
32506;DHT22;18955;51.224;8.482;2023-09-12T01:16:24;18.20;82.70
32506;DHT22;18955;51.224;8.482;2023-09-12T01:18:50;18.20;82.90
32506;DHT22;18955;51.224;8.482;2023-09-12T01:27:28;18.10;83.10
32506;DHT22;18955;51.224;8.482;2023-09-12T01:29:57;18.10;83.00
32506;DHT22;18955;51.224;8.482;2023-09-12T01:32:24;18.10;83.10
32506;DHT22;18955;51.224;8.482;2023-09-12T01:34:50;18.10;83.20
32506;DHT22;18955;51.224;8.482;2023-09-12T01:37:16;18.00;83.30
32506;DHT22;18955;51.224;8.482;2023-09-12T01:39:42;18.00;83.90
32506;DHT22;18955;51.224;8.482;2023-09-12T01:42:15;18.00;83.30
32506;DHT22;18955;51.224;8.482;2023-09-12T01:44:46;18.00;83.40
32506;DHT22;18955;51.224;8.482;2023-09-12T01:47:13;18.00;83.40
32506;DHT22;18955;51.224;8.482;2023-09-12T01:49:45;18.00;83.20
32506;DHT22;18955;51.224;8.482;2023-09-12T01:52:14;18.00;83.20
32506;DHT22;18955;51.224;8.482;2023-09-12T01:54:41;17.90;83.10
32506;DHT22;18955;51.224;8.482;2023-09-12T01:57:08;17.90;83.30
32506;DHT22;18955;51.224;8.482;2023-09-12T01:59:35;17.90;83.30
32506;DHT22;18955;51.224;8.482;2023-09-12T02:02:02;17.90;83.30
32506;DHT22;18955;51.224;8.482;2023-09-12T02:04:28;17.90;83.40
32506;DHT22;18955;51.224;8.482;2023-09-12T02:06:54;17.90;83.50
32506;DHT22;18955;51.224;8.482;2023-09-12T02:09:21;17.90;83.10
32506;DHT22;18955;51.224;8.482;2023-09-12T02:11:49;17.90;83.40
32506;DHT22;18955;51.224;8.482;2023-09-12T02:14:15;17.80;83.30
32506;DHT22;18955;51.224;8.482;2023-09-12T02:16:41;17.90;83.40
32506;DHT22;18955;51.224;8.482;2023-09-12T02:19:08;17.80;83.40
32506;DHT22;18955;51.224;8.482;2023-09-12T02:21:34;17.80;83.40
32506;DHT22;18955;51.224;8.482;2023-09-12T02:24:01;17.80;83.20
32506;DHT22;18955;51.224;8.482;2023-09-12T02:26:27;17.80;83.50
32506;DHT22;18955;51.224;8.482;2023-09-12T02:28:53;17.80;83.60
32506;DHT22;18955;51.224;8.482;2023-09-12T02:31:19;17.80;83.40
32506;DHT22;18955;51.224;8.482;2023-09-12T02:33:46;17.80;83.70
32506;DHT22;18955;51.224;8.482;2023-09-12T02:36:13;17.80;83.50
32506;DHT22;18955;51.224;8.482;2023-09-12T02:38:40;17.80;84.10
32506;DHT22;18955;51.224;8.482;2023-09-12T02:41:06;17.80;83.70
32506;DHT22;18955;51.224;8.482;2023-09-12T02:43:32;17.80;83.70
32506;DHT22;18955;51.224;8.482;2023-09-12T02:45:58;17.70;83.60
32506;DHT22;18955;51.224;8.482;2023-09-12T02:48:24;17.70;83.80
32506;DHT22;18955;51.224;8.482;2023-09-12T02:50:51;17.70;83.40
32506;DHT22;18955;51.224;8.482;2023-09-12T02:53:17;17.70;83.70
32506;DHT22;18955;51.224;8.482;2023-09-12T02:55:44;17.70;83.70
32506;DHT22;18955;51.224;8.482;2023-09-12T02:58:10;17.70;83.70
32506;DHT22;18955;51.224;8.482;2023-09-12T03:00:40;17.70;83.70
32506;DHT22;18955;51.224;8.482;2023-09-12T03:03:07;17.70;84.00
32506;DHT22;18955;51.224;8.482;2023-09-12T03:05:35;17.70;83.80
32506;DHT22;18955;51.224;8.482;2023-09-12T03:08:02;17.60;83.70
32506;DHT22;18955;51.224;8.482;2023-09-12T03:10:30;17.60;83.60
32506;DHT22;18955;51.224;8.482;2023-09-12T03:12:56;17.60;83.90
32506;DHT22;18955;51.224;8.482;2023-09-12T03:15:22;17.60;84.10
32506;DHT22;18955;51.224;8.482;2023-09-12T03:17:49;17.60;83.70
32506;DHT22;18955;51.224;8.482;2023-09-12T03:20:15;17.60;83.70
32506;DHT22;18955;51.224;8.482;2023-09-12T03:22:41;17.60;83.90
32506;DHT22;18955;51.224;8.482;2023-09-12T03:25:08;17.60;83.90
32506;DHT22;18955;51.224;8.482;2023-09-12T03:27:34;17.60;83.80
32506;DHT22;18955;51.224;8.482;2023-09-12T03:30:00;17.50;83.80
32506;DHT22;18955;51.224;8.482;2023-09-12T03:32:26;17.60;84.20
32506;DHT22;18955;51.224;8.482;2023-09-12T03:34:53;17.60;84.20
32506;DHT22;18955;51.224;8.482;2023-09-12T03:37:19;17.60;84.10
32506;DHT22;18955;51.224;8.482;2023-09-12T03:39:45;17.50;84.20
32506;DHT22;18955;51.224;8.482;2023-09-12T03:42:12;17.50;84.00
32506;DHT22;18955;51.224;8.482;2023-09-12T03:44:38;17.50;84.00
32506;DHT22;18955;51.224;8.482;2023-09-12T03:47:04;17.50;84.10
32506;DHT22;18955;51.224;8.482;2023-09-12T03:49:30;17.50;84.30
32506;DHT22;18955;51.224;8.482;2023-09-12T03:51:57;17.50;84.50
32506;DHT22;18955;51.224;8.482;2023-09-12T03:54:23;17.50;84.30
32506;DHT22;18955;51.224;8.482;2023-09-12T03:56:49;17.50;84.20
32506;DHT22;18955;51.224;8.482;2023-09-12T03:59:16;17.50;84.50
32506;DHT22;18955;51.224;8.482;2023-09-12T04:01:42;17.50;84.40
32506;DHT22;18955;51.224;8.482;2023-09-12T04:04:09;17.40;84.60
32506;DHT22;18955;51.224;8.482;2023-09-12T04:06:35;17.40;84.50
32506;DHT22;18955;51.224;8.482;2023-09-12T04:09:01;17.40;84.30
32506;DHT22;18955;51.224;8.482;2023-09-12T04:11:27;17.40;84.50
32506;DHT22;18955;51.224;8.482;2023-09-12T04:13:53;17.40;84.50
32506;DHT22;18955;51.224;8.482;2023-09-12T04:16:20;17.40;84.40
32506;DHT22;18955;51.224;8.482;2023-09-12T04:18:46;17.40;84.40
32506;DHT22;18955;51.224;8.482;2023-09-12T04:21:12;17.40;84.40
32506;DHT22;18955;51.224;8.482;2023-09-12T04:23:39;17.40;84.40
32506;DHT22;18955;51.224;8.482;2023-09-12T04:26:05;17.40;84.60
32506;DHT22;18955;51.224;8.482;2023-09-12T04:28:31;17.40;84.70
32506;DHT22;18955;51.224;8.482;2023-09-12T04:31:04;17.40;84.50
32506;DHT22;18955;51.224;8.482;2023-09-12T04:33:31;17.40;84.40
32506;DHT22;18955;51.224;8.482;2023-09-12T04:36:00;17.40;84.40
32506;DHT22;18955;51.224;8.482;2023-09-12T04:38:26;17.40;84.60
32506;DHT22;18955;51.224;8.482;2023-09-12T04:40:57;17.40;84.60
32506;DHT22;18955;51.224;8.482;2023-09-12T04:43:28;17.30;84.40
32506;DHT22;18955;51.224;8.482;2023-09-12T04:45:55;17.30;84.70
32506;DHT22;18955;51.224;8.482;2023-09-12T04:48:21;17.30;84.80
32506;DHT22;18955;51.224;8.482;2023-09-12T04:50:48;17.30;84.80
32506;DHT22;18955;51.224;8.482;2023-09-12T04:53:14;17.30;84.70
32506;DHT22;18955;51.224;8.482;2023-09-12T04:55:40;17.30;84.60
32506;DHT22;18955;51.224;8.482;2023-09-12T04:58:07;17.30;84.50
32506;DHT22;18955;51.224;8.482;2023-09-12T05:00:33;17.30;84.50
32506;DHT22;18955;51.224;8.482;2023-09-12T05:03:01;17.30;84.50
32506;DHT22;18955;51.224;8.482;2023-09-12T05:05:28;17.30;84.60
32506;DHT22;18955;51.224;8.482;2023-09-12T05:07:54;17.30;84.50
32506;DHT22;18955;51.224;8.482;2023-09-12T05:10:21;17.30;84.60
32506;DHT22;18955;51.224;8.482;2023-09-12T05:12:48;17.30;84.70
32506;DHT22;18955;51.224;8.482;2023-09-12T05:15:14;17.30;84.40
32506;DHT22;18955;51.224;8.482;2023-09-12T05:17:40;17.30;84.30
32506;DHT22;18955;51.224;8.482;2023-09-12T05:20:07;17.30;84.50
32506;DHT22;18955;51.224;8.482;2023-09-12T05:22:33;17.30;84.40
32506;DHT22;18955;51.224;8.482;2023-09-12T05:25:00;17.30;84.50
32506;DHT22;18955;51.224;8.482;2023-09-12T05:27:26;17.30;84.50
32506;DHT22;18955;51.224;8.482;2023-09-12T05:29:52;17.30;84.80
32506;DHT22;18955;51.224;8.482;2023-09-12T05:32:18;17.20;84.50
32506;DHT22;18955;51.224;8.482;2023-09-12T05:34:45;17.20;84.60
32506;DHT22;18955;51.224;8.482;2023-09-12T05:37:11;17.20;84.60
32506;DHT22;18955;51.224;8.482;2023-09-12T05:39:37;17.20;84.60
32506;DHT22;18955;51.224;8.482;2023-09-12T05:42:04;17.20;84.70
32506;DHT22;18955;51.224;8.482;2023-09-12T05:44:30;17.20;84.60
32506;DHT22;18955;51.224;8.482;2023-09-12T05:46:58;17.20;84.60
32506;DHT22;18955;51.224;8.482;2023-09-12T05:49:25;17.20;84.60
32506;DHT22;18955;51.224;8.482;2023-09-12T05:51:51;17.20;84.80
32506;DHT22;18955;51.224;8.482;2023-09-12T05:54:17;17.20;84.70
32506;DHT22;18955;51.224;8.482;2023-09-12T05:56:45;17.20;84.80
32506;DHT22;18955;51.224;8.482;2023-09-12T05:59:13;17.20;84.90
32506;DHT22;18955;51.224;8.482;2023-09-12T06:01:40;17.20;84.90
32506;DHT22;18955;51.224;8.482;2023-09-12T06:04:06;17.20;84.60
32506;DHT22;18955;51.224;8.482;2023-09-12T06:06:33;17.20;85.10
32506;DHT22;18955;51.224;8.482;2023-09-12T06:08:59;17.20;85.30
32506;DHT22;18955;51.224;8.482;2023-09-12T06:11:25;17.20;84.80
32506;DHT22;18955;51.224;8.482;2023-09-12T06:13:52;17.20;85.20
32506;DHT22;18955;51.224;8.482;2023-09-12T06:16:18;17.20;85.40
32506;DHT22;18955;51.224;8.482;2023-09-12T06:18:44;17.20;85.20
32506;DHT22;18955;51.224;8.482;2023-09-12T06:21:10;17.20;85.30
32506;DHT22;18955;51.224;8.482;2023-09-12T06:23:36;17.20;85.30
32506;DHT22;18955;51.224;8.482;2023-09-12T06:26:03;17.20;85.10
32506;DHT22;18955;51.224;8.482;2023-09-12T06:28:30;17.20;85.40
32506;DHT22;18955;51.224;8.482;2023-09-12T06:30:57;17.20;85.30
32506;DHT22;18955;51.224;8.482;2023-09-12T06:33:25;17.20;85.30
32506;DHT22;18955;51.224;8.482;2023-09-12T06:35:52;17.20;85.40
32506;DHT22;18955;51.224;8.482;2023-09-12T06:38:23;17.20;85.30
32506;DHT22;18955;51.224;8.482;2023-09-12T06:40:50;17.20;85.40
32506;DHT22;18955;51.224;8.482;2023-09-12T06:43:16;17.20;85.30
32506;DHT22;18955;51.224;8.482;2023-09-12T06:45:43;17.20;85.70
32506;DHT22;18955;51.224;8.482;2023-09-12T06:48:09;17.20;85.30
32506;DHT22;18955;51.224;8.482;2023-09-12T06:50:35;17.30;85.60
32506;DHT22;18955;51.224;8.482;2023-09-12T06:53:04;17.30;86.30
32506;DHT22;18955;51.224;8.482;2023-09-12T06:55:33;17.30;87.00
32506;DHT22;18955;51.224;8.482;2023-09-12T06:58:00;17.30;86.30
32506;DHT22;18955;51.224;8.482;2023-09-12T07:00:26;17.30;87.60
32506;DHT22;18955;51.224;8.482;2023-09-12T07:02:52;17.40;86.90
32506;DHT22;18955;51.224;8.482;2023-09-12T07:05:18;17.40;87.80
32506;DHT22;18955;51.224;8.482;2023-09-12T07:07:45;17.40;87.10
32506;DHT22;18955;51.224;8.482;2023-09-12T07:10:11;17.40;87.00
32506;DHT22;18955;51.224;8.482;2023-09-12T07:12:37;17.50;87.10
32506;DHT22;18955;51.224;8.482;2023-09-12T07:15:04;17.50;87.40
32506;DHT22;18955;51.224;8.482;2023-09-12T07:17:30;17.50;87.40
32506;DHT22;18955;51.224;8.482;2023-09-12T07:19:57;17.60;89.60
32506;DHT22;18955;51.224;8.482;2023-09-12T07:22:23;17.60;89.00
32506;DHT22;18955;51.224;8.482;2023-09-12T07:24:49;17.70;88.30
32506;DHT22;18955;51.224;8.482;2023-09-12T07:27:15;17.70;89.00
32506;DHT22;18955;51.224;8.482;2023-09-12T07:29:41;17.70;88.30
32506;DHT22;18955;51.224;8.482;2023-09-12T07:32:08;17.80;89.20
32506;DHT22;18955;51.224;8.482;2023-09-12T07:34:34;17.70;87.70
32506;DHT22;18955;51.224;8.482;2023-09-12T07:37:00;17.80;88.60
32506;DHT22;18955;51.224;8.482;2023-09-12T07:39:27;17.80;89.10
32506;DHT22;18955;51.224;8.482;2023-09-12T07:41:53;17.80;88.00
32506;DHT22;18955;51.224;8.482;2023-09-12T07:44:19;17.80;88.10
32506;DHT22;18955;51.224;8.482;2023-09-12T07:46:46;17.90;87.90
32506;DHT22;18955;51.224;8.482;2023-09-12T07:49:13;17.90;87.20
32506;DHT22;18955;51.224;8.482;2023-09-12T07:51:39;17.90;86.70
32506;DHT22;18955;51.224;8.482;2023-09-12T07:54:05;17.90;87.00
32506;DHT22;18955;51.224;8.482;2023-09-12T07:56:31;18.00;87.40
32506;DHT22;18955;51.224;8.482;2023-09-12T07:58:58;18.00;87.10
32506;DHT22;18955;51.224;8.482;2023-09-12T08:01:24;18.00;87.30
32506;DHT22;18955;51.224;8.482;2023-09-12T08:03:50;18.00;87.40
32506;DHT22;18955;51.224;8.482;2023-09-12T08:06:16;18.00;87.50
32506;DHT22;18955;51.224;8.482;2023-09-12T08:08:43;18.00;87.10
32506;DHT22;18955;51.224;8.482;2023-09-12T08:11:09;18.00;87.20
32506;DHT22;18955;51.224;8.482;2023-09-12T08:13:35;18.00;87.10
32506;DHT22;18955;51.224;8.482;2023-09-12T08:16:01;18.10;87.50
32506;DHT22;18955;51.224;8.482;2023-09-12T08:18:31;18.00;87.00
32506;DHT22;18955;51.224;8.482;2023-09-12T08:20:57;18.10;87.80
32506;DHT22;18955;51.224;8.482;2023-09-12T08:23:23;18.10;86.80
32506;DHT22;18955;51.224;8.482;2023-09-12T08:25:50;18.10;88.00
32506;DHT22;18955;51.224;8.482;2023-09-12T08:28:16;18.20;89.00
32506;DHT22;18955;51.224;8.482;2023-09-12T08:30:46;18.20;89.00
32506;DHT22;18955;51.224;8.482;2023-09-12T08:33:13;18.20;88.00
32506;DHT22;18955;51.224;8.482;2023-09-12T08:35:39;18.20;87.70
32506;DHT22;18955;51.224;8.482;2023-09-12T08:38:05;18.20;87.90
32506;DHT22;18955;51.224;8.482;2023-09-12T08:40:35;18.20;87.20
32506;DHT22;18955;51.224;8.482;2023-09-12T08:43:01;18.20;87.80
32506;DHT22;18955;51.224;8.482;2023-09-12T08:45:30;18.30;87.90
32506;DHT22;18955;51.224;8.482;2023-09-12T08:48:00;18.30;87.50
32506;DHT22;18955;51.224;8.482;2023-09-12T08:50:27;18.30;87.60
32506;DHT22;18955;51.224;8.482;2023-09-12T08:52:57;18.40;88.40
32506;DHT22;18955;51.224;8.482;2023-09-12T08:55:23;18.40;88.10
32506;DHT22;18955;51.224;8.482;2023-09-12T08:57:50;18.40;88.20
32506;DHT22;18955;51.224;8.482;2023-09-12T09:00:17;18.50;87.70
32506;DHT22;18955;51.224;8.482;2023-09-12T09:02:45;18.50;87.80
32506;DHT22;18955;51.224;8.482;2023-09-12T09:05:11;18.50;87.90
32506;DHT22;18955;51.224;8.482;2023-09-12T09:07:39;18.50;88.30
32506;DHT22;18955;51.224;8.482;2023-09-12T09:10:14;18.50;88.80
32506;DHT22;18955;51.224;8.482;2023-09-12T09:12:44;18.50;89.00
32506;DHT22;18955;51.224;8.482;2023-09-12T09:15:24;18.50;88.90
32506;DHT22;18955;51.224;8.482;2023-09-12T09:17:53;18.50;88.70
32506;DHT22;18955;51.224;8.482;2023-09-12T09:20:31;18.50;87.90
32506;DHT22;18955;51.224;8.482;2023-09-12T09:23:02;18.60;88.30
32506;DHT22;18955;51.224;8.482;2023-09-12T09:25:33;18.60;88.30
32506;DHT22;18955;51.224;8.482;2023-09-12T09:28:06;18.70;88.70
32506;DHT22;18955;51.224;8.482;2023-09-12T09:30:46;18.70;88.70
32506;DHT22;18955;51.224;8.482;2023-09-12T09:33:13;18.70;88.50
32506;DHT22;18955;51.224;8.482;2023-09-12T09:35:46;18.70;88.80
32506;DHT22;18955;51.224;8.482;2023-09-12T09:38:13;18.80;88.60
32506;DHT22;18955;51.224;8.482;2023-09-12T09:40:43;18.80;88.40
32506;DHT22;18955;51.224;8.482;2023-09-12T09:43:10;18.80;88.50
32506;DHT22;18955;51.224;8.482;2023-09-12T09:45:44;18.80;88.50
32506;DHT22;18955;51.224;8.482;2023-09-12T09:48:23;18.90;88.60
32506;DHT22;18955;51.224;8.482;2023-09-12T09:50:50;18.90;88.80
32506;DHT22;18955;51.224;8.482;2023-09-12T09:53:31;18.90;89.00
32506;DHT22;18955;51.224;8.482;2023-09-12T09:56:12;18.90;88.80
32506;DHT22;18955;51.224;8.482;2023-09-12T09:58:46;19.00;88.50
32506;DHT22;18955;51.224;8.482;2023-09-12T10:01:17;19.00;88.60
32506;DHT22;18955;51.224;8.482;2023-09-12T10:03:46;19.00;88.70
32506;DHT22;18955;51.224;8.482;2023-09-12T10:06:15;19.00;88.60
32506;DHT22;18955;51.224;8.482;2023-09-12T10:08:50;19.00;87.90
32506;DHT22;18955;51.224;8.482;2023-09-12T10:11:18;19.00;88.50
32506;DHT22;18955;51.224;8.482;2023-09-12T10:13:49;19.10;88.30
32506;DHT22;18955;51.224;8.482;2023-09-12T10:16:16;19.10;88.30
32506;DHT22;18955;51.224;8.482;2023-09-12T10:18:56;19.10;88.30
32506;DHT22;18955;51.224;8.482;2023-09-12T10:21:29;19.10;88.30
32506;DHT22;18955;51.224;8.482;2023-09-12T10:23:58;19.10;88.70
32506;DHT22;18955;51.224;8.482;2023-09-12T10:26:25;19.10;88.40
32506;DHT22;18955;51.224;8.482;2023-09-12T10:28:51;19.20;88.30
32506;DHT22;18955;51.224;8.482;2023-09-12T10:31:18;19.20;87.90
32506;DHT22;18955;51.224;8.482;2023-09-12T10:33:46;19.20;88.10
32506;DHT22;18955;51.224;8.482;2023-09-12T10:36:18;19.20;87.80
32506;DHT22;18955;51.224;8.482;2023-09-12T10:38:47;19.20;87.80
32506;DHT22;18955;51.224;8.482;2023-09-12T10:41:14;19.30;87.90
32506;DHT22;18955;51.224;8.482;2023-09-12T10:43:43;19.30;87.80
32506;DHT22;18955;51.224;8.482;2023-09-12T10:46:12;19.30;87.80
32506;DHT22;18955;51.224;8.482;2023-09-12T10:48:39;19.30;87.80
32506;DHT22;18955;51.224;8.482;2023-09-12T10:51:08;19.30;88.00
32506;DHT22;18955;51.224;8.482;2023-09-12T10:53:35;19.40;87.90
32506;DHT22;18955;51.224;8.482;2023-09-12T10:56:20;19.40;87.60
32506;DHT22;18955;51.224;8.482;2023-09-12T10:59:13;19.40;88.10
32506;DHT22;18955;51.224;8.482;2023-09-12T11:01:41;19.40;88.00
32506;DHT22;18955;51.224;8.482;2023-09-12T11:06:49;19.50;87.70
32506;DHT22;18955;51.224;8.482;2023-09-12T11:09:23;19.50;88.00
32506;DHT22;18955;51.224;8.482;2023-09-12T11:11:59;19.50;87.80
32506;DHT22;18955;51.224;8.482;2023-09-12T11:14:28;19.50;88.00
32506;DHT22;18955;51.224;8.482;2023-09-12T11:19:51;19.60;87.60
32506;DHT22;18955;51.224;8.482;2023-09-12T11:26:07;19.60;87.40
32506;DHT22;18955;51.224;8.482;2023-09-12T11:28:34;19.70;87.80
32506;DHT22;18955;51.224;8.482;2023-09-12T11:31:00;19.70;87.60
32506;DHT22;18955;51.224;8.482;2023-09-12T11:33:26;19.70;87.50
32506;DHT22;18955;51.224;8.482;2023-09-12T11:35:54;19.80;87.70
32506;DHT22;18955;51.224;8.482;2023-09-12T11:38:30;19.80;88.10
32506;DHT22;18955;51.224;8.482;2023-09-12T11:40:58;19.80;88.20
32506;DHT22;18955;51.224;8.482;2023-09-12T11:43:27;19.80;88.40
32506;DHT22;18955;51.224;8.482;2023-09-12T11:45:55;19.80;88.00
32506;DHT22;18955;51.224;8.482;2023-09-12T11:48:22;19.90;88.20
32506;DHT22;18955;51.224;8.482;2023-09-12T11:50:52;19.80;88.00
32506;DHT22;18955;51.224;8.482;2023-09-12T11:53:20;19.90;88.10
32506;DHT22;18955;51.224;8.482;2023-09-12T11:55:49;19.90;87.80
32506;DHT22;18955;51.224;8.482;2023-09-12T11:58:18;19.90;87.90
32506;DHT22;18955;51.224;8.482;2023-09-12T12:00:50;20.00;88.00
32506;DHT22;18955;51.224;8.482;2023-09-12T12:03:22;19.90;87.90
32506;DHT22;18955;51.224;8.482;2023-09-12T12:05:49;20.00;87.90
32506;DHT22;18955;51.224;8.482;2023-09-12T12:08:17;20.00;87.80
32506;DHT22;18955;51.224;8.482;2023-09-12T12:10:43;20.00;87.70
32506;DHT22;18955;51.224;8.482;2023-09-12T12:13:16;20.00;87.70
32506;DHT22;18955;51.224;8.482;2023-09-12T12:15:42;20.10;87.70
32506;DHT22;18955;51.224;8.482;2023-09-12T12:18:08;20.00;87.80
32506;DHT22;18955;51.224;8.482;2023-09-12T12:20:35;20.10;87.90
32506;DHT22;18955;51.224;8.482;2023-09-12T12:23:01;20.10;87.70
32506;DHT22;18955;51.224;8.482;2023-09-12T12:25:31;20.10;87.80
32506;DHT22;18955;51.224;8.482;2023-09-12T12:27:59;20.10;87.70
32506;DHT22;18955;51.224;8.482;2023-09-12T12:30:25;20.10;87.60
32506;DHT22;18955;51.224;8.482;2023-09-12T12:32:52;20.10;87.60
32506;DHT22;18955;51.224;8.482;2023-09-12T12:35:19;20.20;87.60
32506;DHT22;18955;51.224;8.482;2023-09-12T12:37:45;20.20;87.70
32506;DHT22;18955;51.224;8.482;2023-09-12T12:40:13;20.20;87.70
32506;DHT22;18955;51.224;8.482;2023-09-12T12:42:41;20.30;87.40
32506;DHT22;18955;51.224;8.482;2023-09-12T12:45:20;20.20;87.50
32506;DHT22;18955;51.224;8.482;2023-09-12T12:47:50;20.30;87.40
32506;DHT22;18955;51.224;8.482;2023-09-12T12:50:17;20.30;87.60
32506;DHT22;18955;51.224;8.482;2023-09-12T12:52:48;20.20;87.40
32506;DHT22;18955;51.224;8.482;2023-09-12T12:55:15;20.30;87.40
32506;DHT22;18955;51.224;8.482;2023-09-12T12:57:43;20.30;87.30
32506;DHT22;18955;51.224;8.482;2023-09-12T13:00:15;20.30;87.40
32506;DHT22;18955;51.224;8.482;2023-09-12T13:02:42;20.30;87.50
32506;DHT22;18955;51.224;8.482;2023-09-12T13:05:29;20.30;87.50
32506;DHT22;18955;51.224;8.482;2023-09-12T13:07:59;20.30;87.60
32506;DHT22;18955;51.224;8.482;2023-09-12T13:10:25;20.40;87.60
32506;DHT22;18955;51.224;8.482;2023-09-12T13:12:51;20.40;87.60
32506;DHT22;18955;51.224;8.482;2023-09-12T13:15:17;20.40;87.50
32506;DHT22;18955;51.224;8.482;2023-09-12T13:17:44;20.40;87.40
32506;DHT22;18955;51.224;8.482;2023-09-12T13:20:11;20.40;87.40
32506;DHT22;18955;51.224;8.482;2023-09-12T13:22:37;20.40;87.30
32506;DHT22;18955;51.224;8.482;2023-09-12T13:25:04;20.40;87.50
32506;DHT22;18955;51.224;8.482;2023-09-12T13:27:31;20.40;87.40
32506;DHT22;18955;51.224;8.482;2023-09-12T13:29:57;20.40;87.50
32506;DHT22;18955;51.224;8.482;2023-09-12T13:32:23;20.40;87.40
32506;DHT22;18955;51.224;8.482;2023-09-12T13:34:50;20.50;87.40
32506;DHT22;18955;51.224;8.482;2023-09-12T13:37:16;20.50;87.40
32506;DHT22;18955;51.224;8.482;2023-09-12T13:39:45;20.40;87.40
32506;DHT22;18955;51.224;8.482;2023-09-12T13:42:18;20.50;87.80
32506;DHT22;18955;51.224;8.482;2023-09-12T13:44:47;20.50;87.50
32506;DHT22;18955;51.224;8.482;2023-09-12T13:47:14;20.50;87.50
32506;DHT22;18955;51.224;8.482;2023-09-12T13:49:47;20.40;87.50
32506;DHT22;18955;51.224;8.482;2023-09-12T13:52:13;20.50;87.50
32506;DHT22;18955;51.224;8.482;2023-09-12T13:54:43;20.50;87.90
32506;DHT22;18955;51.224;8.482;2023-09-12T13:57:09;20.50;87.60
32506;DHT22;18955;51.224;8.482;2023-09-12T13:59:35;20.50;87.50
32506;DHT22;18955;51.224;8.482;2023-09-12T14:02:02;20.50;88.10
32506;DHT22;18955;51.224;8.482;2023-09-12T14:04:28;20.50;87.80
32506;DHT22;18955;51.224;8.482;2023-09-12T14:06:54;20.50;87.60
32506;DHT22;18955;51.224;8.482;2023-09-12T14:09:20;20.50;87.60
32506;DHT22;18955;51.224;8.482;2023-09-12T14:11:47;20.50;87.70
32506;DHT22;18955;51.224;8.482;2023-09-12T14:14:14;20.50;87.80
32506;DHT22;18955;51.224;8.482;2023-09-12T14:16:40;20.50;87.80
32506;DHT22;18955;51.224;8.482;2023-09-12T14:19:06;20.50;87.60
32506;DHT22;18955;51.224;8.482;2023-09-12T14:21:32;20.50;87.40
32506;DHT22;18955;51.224;8.482;2023-09-12T14:23:59;20.50;87.50
32506;DHT22;18955;51.224;8.482;2023-09-12T14:26:25;20.50;87.70
32506;DHT22;18955;51.224;8.482;2023-09-12T14:28:51;20.50;87.50
32506;DHT22;18955;51.224;8.482;2023-09-12T14:31:17;20.50;87.60
32506;DHT22;18955;51.224;8.482;2023-09-12T14:33:44;20.60;87.30
32506;DHT22;18955;51.224;8.482;2023-09-12T14:36:10;20.50;87.40
32506;DHT22;18955;51.224;8.482;2023-09-12T14:38:36;20.60;87.60
32506;DHT22;18955;51.224;8.482;2023-09-12T14:41:02;20.60;87.60
32506;DHT22;18955;51.224;8.482;2023-09-12T14:43:29;20.50;87.80
32506;DHT22;18955;51.224;8.482;2023-09-12T14:45:55;20.60;87.90
32506;DHT22;18955;51.224;8.482;2023-09-12T14:48:21;20.60;87.70
32506;DHT22;18955;51.224;8.482;2023-09-12T14:50:48;20.60;88.10
32506;DHT22;18955;51.224;8.482;2023-09-12T14:53:17;20.60;87.90
32506;DHT22;18955;51.224;8.482;2023-09-12T14:55:44;20.60;87.90
32506;DHT22;18955;51.224;8.482;2023-09-12T14:58:10;20.60;87.70
32506;DHT22;18955;51.224;8.482;2023-09-12T15:00:36;20.70;87.60
32506;DHT22;18955;51.224;8.482;2023-09-12T15:14:17;20.70;87.00
32506;DHT22;18955;51.224;8.482;2023-09-12T15:16:43;20.70;87.00
32506;DHT22;18955;51.224;8.482;2023-09-12T15:19:09;20.60;86.90
32506;DHT22;18955;51.224;8.482;2023-09-12T15:21:36;20.60;86.90
32506;DHT22;18955;51.224;8.482;2023-09-12T15:24:02;20.60;86.80
32506;DHT22;18955;51.224;8.482;2023-09-12T15:26:29;20.60;86.80
32506;DHT22;18955;51.224;8.482;2023-09-12T15:28:55;20.60;86.80
32506;DHT22;18955;51.224;8.482;2023-09-12T15:31:22;20.60;86.80
32506;DHT22;18955;51.224;8.482;2023-09-12T15:33:48;20.60;86.70
32506;DHT22;18955;51.224;8.482;2023-09-12T15:36:14;20.60;86.70
32506;DHT22;18955;51.224;8.482;2023-09-12T15:38:41;20.60;86.70
32506;DHT22;18955;51.224;8.482;2023-09-12T15:41:07;20.60;86.60
32506;DHT22;18955;51.224;8.482;2023-09-12T15:43:34;20.50;86.60
32506;DHT22;18955;51.224;8.482;2023-09-12T15:46:01;20.60;86.70
32506;DHT22;18955;51.224;8.482;2023-09-12T15:48:27;20.50;86.60
32506;DHT22;18955;51.224;8.482;2023-09-12T15:50:54;20.50;86.70
32506;DHT22;18955;51.224;8.482;2023-09-12T15:53:20;20.50;86.60
32506;DHT22;18955;51.224;8.482;2023-09-12T15:55:47;20.50;86.50
32506;DHT22;18955;51.224;8.482;2023-09-12T15:58:14;20.50;86.60